sensor_id;sensor_type;location;lat;lon;timestamp;P1;durP1;ratioP1;P2;durP2;ratioP2
19554;SDS011;9924;50.828;6.440;2023-04-09T00:00:59;29.13;;;18.50;;
19554;SDS011;9924;50.828;6.440;2023-04-09T00:03:53;27.40;;;17.08;;
19554;SDS011;9924;50.828;6.440;2023-04-09T00:06:38;27.95;;;17.25;;
19554;SDS011;9924;50.828;6.440;2023-04-09T00:09:23;31.92;;;18.42;;
19554;SDS011;9924;50.828;6.440;2023-04-09T00:12:07;29.45;;;17.17;;
19554;SDS011;9924;50.828;6.440;2023-04-09T00:14:52;28.67;;;17.50;;
19554;SDS011;9924;50.828;6.440;2023-04-09T00:17:36;31.10;;;18.42;;
19554;SDS011;9924;50.828;6.440;2023-04-09T00:20:21;35.47;;;20.30;;
19554;SDS011;9924;50.828;6.440;2023-04-09T00:23:05;36.63;;;20.90;;
19554;SDS011;9924;50.828;6.440;2023-04-09T00:25:49;31.98;;;19.17;;
19554;SDS011;9924;50.828;6.440;2023-04-09T00:28:34;40.60;;;23.02;;
19554;SDS011;9924;50.828;6.440;2023-04-09T00:31:18;41.38;;;22.13;;
19554;SDS011;9924;50.828;6.440;2023-04-09T00:34:03;42.50;;;23.52;;
19554;SDS011;9924;50.828;6.440;2023-04-09T00:36:48;37.28;;;21.38;;
19554;SDS011;9924;50.828;6.440;2023-04-09T00:39:32;41.67;;;23.83;;
19554;SDS011;9924;50.828;6.440;2023-04-09T00:42:17;37.95;;;22.30;;
19554;SDS011;9924;50.828;6.440;2023-04-09T00:45:02;42.00;;;23.58;;
19554;SDS011;9924;50.828;6.440;2023-04-09T00:47:47;39.88;;;22.10;;
19554;SDS011;9924;50.828;6.440;2023-04-09T00:50:31;37.65;;;22.30;;
19554;SDS011;9924;50.828;6.440;2023-04-09T00:53:16;39.00;;;22.52;;
19554;SDS011;9924;50.828;6.440;2023-04-09T00:56:00;36.17;;;19.85;;
19554;SDS011;9924;50.828;6.440;2023-04-09T00:58:46;36.40;;;21.23;;
19554;SDS011;9924;50.828;6.440;2023-04-09T01:01:30;38.25;;;23.02;;
19554;SDS011;9924;50.828;6.440;2023-04-09T01:04:15;36.25;;;21.80;;
19554;SDS011;9924;50.828;6.440;2023-04-09T01:07:09;39.88;;;21.80;;
19554;SDS011;9924;50.828;6.440;2023-04-09T01:10:18;36.70;;;21.40;;
19554;SDS011;9924;50.828;6.440;2023-04-09T01:15:59;32.85;;;19.13;;
19554;SDS011;9924;50.828;6.440;2023-04-09T01:18:49;35.33;;;18.50;;
19554;SDS011;9924;50.828;6.440;2023-04-09T01:21:38;34.60;;;18.55;;
19554;SDS011;9924;50.828;6.440;2023-04-09T01:27:43;38.60;;;20.85;;
19554;SDS011;9924;50.828;6.440;2023-04-09T01:30:38;37.53;;;21.55;;
19554;SDS011;9924;50.828;6.440;2023-04-09T01:33:26;36.53;;;20.25;;
19554;SDS011;9924;50.828;6.440;2023-04-09T01:36:12;36.42;;;21.70;;
19554;SDS011;9924;50.828;6.440;2023-04-09T01:38:57;32.22;;;19.50;;
19554;SDS011;9924;50.828;6.440;2023-04-09T01:41:44;31.20;;;18.67;;
19554;SDS011;9924;50.828;6.440;2023-04-09T01:44:29;30.42;;;17.10;;
19554;SDS011;9924;50.828;6.440;2023-04-09T01:47:15;28.15;;;17.10;;
19554;SDS011;9924;50.828;6.440;2023-04-09T01:49:59;28.77;;;16.63;;
19554;SDS011;9924;50.828;6.440;2023-04-09T01:52:45;32.00;;;17.23;;
19554;SDS011;9924;50.828;6.440;2023-04-09T01:55:30;34.10;;;19.45;;
19554;SDS011;9924;50.828;6.440;2023-04-09T01:58:14;32.90;;;18.35;;
19554;SDS011;9924;50.828;6.440;2023-04-09T02:04:16;34.10;;;19.30;;
19554;SDS011;9924;50.828;6.440;2023-04-09T02:10:09;32.33;;;18.88;;
19554;SDS011;9924;50.828;6.440;2023-04-09T02:12:55;36.08;;;18.48;;
19554;SDS011;9924;50.828;6.440;2023-04-09T02:15:43;29.55;;;17.20;;
19554;SDS011;9924;50.828;6.440;2023-04-09T02:18:29;29.70;;;16.02;;
19554;SDS011;9924;50.828;6.440;2023-04-09T02:21:13;30.38;;;17.20;;
19554;SDS011;9924;50.828;6.440;2023-04-09T02:23:57;33.05;;;18.45;;
19554;SDS011;9924;50.828;6.440;2023-04-09T02:26:41;30.00;;;17.00;;
19554;SDS011;9924;50.828;6.440;2023-04-09T02:29:26;35.17;;;19.77;;
19554;SDS011;9924;50.828;6.440;2023-04-09T02:32:10;31.55;;;18.23;;
19554;SDS011;9924;50.828;6.440;2023-04-09T02:34:54;32.85;;;18.30;;
19554;SDS011;9924;50.828;6.440;2023-04-09T02:37:39;31.25;;;18.58;;
19554;SDS011;9924;50.828;6.440;2023-04-09T02:40:23;33.42;;;19.55;;
19554;SDS011;9924;50.828;6.440;2023-04-09T02:43:08;32.90;;;19.15;;
19554;SDS011;9924;50.828;6.440;2023-04-09T02:45:53;32.03;;;18.85;;
19554;SDS011;9924;50.828;6.440;2023-04-09T02:48:37;28.40;;;16.63;;
19554;SDS011;9924;50.828;6.440;2023-04-09T02:51:22;29.13;;;17.10;;
19554;SDS011;9924;50.828;6.440;2023-04-09T02:54:06;30.65;;;17.85;;
19554;SDS011;9924;50.828;6.440;2023-04-09T02:56:50;32.75;;;18.80;;
19554;SDS011;9924;50.828;6.440;2023-04-09T02:59:35;32.42;;;18.80;;
19554;SDS011;9924;50.828;6.440;2023-04-09T03:02:21;32.72;;;17.55;;
19554;SDS011;9924;50.828;6.440;2023-04-09T03:05:05;30.57;;;17.53;;
19554;SDS011;9924;50.828;6.440;2023-04-09T03:07:50;25.23;;;14.93;;
19554;SDS011;9924;50.828;6.440;2023-04-09T03:10:34;27.33;;;16.27;;
19554;SDS011;9924;50.828;6.440;2023-04-09T03:13:19;30.30;;;16.75;;
19554;SDS011;9924;50.828;6.440;2023-04-09T03:16:03;29.77;;;15.73;;
19554;SDS011;9924;50.828;6.440;2023-04-09T03:18:48;28.70;;;17.83;;
19554;SDS011;9924;50.828;6.440;2023-04-09T03:21:32;35.50;;;19.13;;
19554;SDS011;9924;50.828;6.440;2023-04-09T03:24:17;31.73;;;18.10;;
19554;SDS011;9924;50.828;6.440;2023-04-09T03:27:01;36.53;;;20.87;;
19554;SDS011;9924;50.828;6.440;2023-04-09T03:29:45;34.17;;;19.87;;
19554;SDS011;9924;50.828;6.440;2023-04-09T03:32:30;29.13;;;18.30;;
19554;SDS011;9924;50.828;6.440;2023-04-09T03:35:14;29.83;;;17.40;;
19554;SDS011;9924;50.828;6.440;2023-04-09T03:37:58;32.00;;;17.20;;
19554;SDS011;9924;50.828;6.440;2023-04-09T03:40:43;33.60;;;17.37;;
19554;SDS011;9924;50.828;6.440;2023-04-09T03:43:27;30.60;;;17.13;;
19554;SDS011;9924;50.828;6.440;2023-04-09T03:46:15;36.03;;;19.10;;
19554;SDS011;9924;50.828;6.440;2023-04-09T03:49:00;36.07;;;19.80;;
19554;SDS011;9924;50.828;6.440;2023-04-09T03:51:45;33.60;;;18.53;;
19554;SDS011;9924;50.828;6.440;2023-04-09T03:54:29;32.70;;;18.13;;
19554;SDS011;9924;50.828;6.440;2023-04-09T03:57:14;32.30;;;18.43;;
19554;SDS011;9924;50.828;6.440;2023-04-09T03:59:59;29.30;;;15.87;;
19554;SDS011;9924;50.828;6.440;2023-04-09T04:02:43;30.33;;;17.83;;
19554;SDS011;9924;50.828;6.440;2023-04-09T04:05:28;32.90;;;17.13;;
19554;SDS011;9924;50.828;6.440;2023-04-09T04:08:12;30.83;;;17.60;;
19554;SDS011;9924;50.828;6.440;2023-04-09T04:11:01;39.70;;;21.03;;
19554;SDS011;9924;50.828;6.440;2023-04-09T04:13:47;39.37;;;20.93;;
19554;SDS011;9924;50.828;6.440;2023-04-09T04:16:31;44.00;;;22.10;;
19554;SDS011;9924;50.828;6.440;2023-04-09T04:19:15;39.60;;;22.23;;
19554;SDS011;9924;50.828;6.440;2023-04-09T04:22:00;44.20;;;21.50;;
19554;SDS011;9924;50.828;6.440;2023-04-09T04:24:44;39.67;;;20.37;;
19554;SDS011;9924;50.828;6.440;2023-04-09T04:27:29;46.17;;;24.10;;
19554;SDS011;9924;50.828;6.440;2023-04-09T04:30:13;50.47;;;25.33;;
19554;SDS011;9924;50.828;6.440;2023-04-09T04:32:58;50.43;;;24.93;;
19554;SDS011;9924;50.828;6.440;2023-04-09T04:35:43;46.83;;;24.27;;
19554;SDS011;9924;50.828;6.440;2023-04-09T04:38:27;43.37;;;23.97;;
19554;SDS011;9924;50.828;6.440;2023-04-09T04:41:11;46.77;;;23.47;;
19554;SDS011;9924;50.828;6.440;2023-04-09T04:43:56;45.63;;;22.23;;
19554;SDS011;9924;50.828;6.440;2023-04-09T04:46:40;41.90;;;21.77;;
19554;SDS011;9924;50.828;6.440;2023-04-09T04:49:25;43.43;;;21.10;;
19554;SDS011;9924;50.828;6.440;2023-04-09T04:52:09;43.20;;;22.30;;
19554;SDS011;9924;50.828;6.440;2023-04-09T04:54:54;41.03;;;21.87;;
19554;SDS011;9924;50.828;6.440;2023-04-09T04:57:38;52.37;;;24.47;;
19554;SDS011;9924;50.828;6.440;2023-04-09T05:00:22;47.90;;;23.17;;
19554;SDS011;9924;50.828;6.440;2023-04-09T05:03:07;44.03;;;23.33;;
19554;SDS011;9924;50.828;6.440;2023-04-09T05:05:51;42.87;;;22.70;;
19554;SDS011;9924;50.828;6.440;2023-04-09T05:08:36;46.60;;;23.57;;
19554;SDS011;9924;50.828;6.440;2023-04-09T05:11:20;46.83;;;23.90;;
19554;SDS011;9924;50.828;6.440;2023-04-09T05:14:05;45.50;;;23.10;;
19554;SDS011;9924;50.828;6.440;2023-04-09T05:16:49;44.70;;;23.50;;
19554;SDS011;9924;50.828;6.440;2023-04-09T05:19:33;46.73;;;24.10;;
19554;SDS011;9924;50.828;6.440;2023-04-09T05:22:18;45.10;;;23.73;;
19554;SDS011;9924;50.828;6.440;2023-04-09T05:25:03;43.03;;;23.70;;
19554;SDS011;9924;50.828;6.440;2023-04-09T05:27:48;41.57;;;21.43;;
19554;SDS011;9924;50.828;6.440;2023-04-09T05:30:32;37.97;;;20.03;;
19554;SDS011;9924;50.828;6.440;2023-04-09T05:33:17;33.70;;;19.10;;
19554;SDS011;9924;50.828;6.440;2023-04-09T05:36:01;42.67;;;21.70;;
19554;SDS011;9924;50.828;6.440;2023-04-09T05:38:46;47.10;;;23.27;;
19554;SDS011;9924;50.828;6.440;2023-04-09T05:41:31;53.20;;;24.10;;
19554;SDS011;9924;50.828;6.440;2023-04-09T05:44:16;58.47;;;28.30;;
19554;SDS011;9924;50.828;6.440;2023-04-09T05:47:01;53.40;;;27.70;;
19554;SDS011;9924;50.828;6.440;2023-04-09T05:49:45;58.87;;;29.23;;
19554;SDS011;9924;50.828;6.440;2023-04-09T05:52:30;59.77;;;29.87;;
19554;SDS011;9924;50.828;6.440;2023-04-09T05:55:14;57.77;;;30.27;;
19554;SDS011;9924;50.828;6.440;2023-04-09T05:57:58;57.37;;;28.60;;
19554;SDS011;9924;50.828;6.440;2023-04-09T06:00:43;52.78;;;26.90;;
19554;SDS011;9924;50.828;6.440;2023-04-09T06:03:27;56.63;;;28.77;;
19554;SDS011;9924;50.828;6.440;2023-04-09T06:06:12;53.60;;;27.20;;
19554;SDS011;9924;50.828;6.440;2023-04-09T06:08:56;63.13;;;30.55;;
19554;SDS011;9924;50.828;6.440;2023-04-09T06:11:40;70.38;;;33.50;;
19554;SDS011;9924;50.828;6.440;2023-04-09T06:14:25;65.97;;;33.97;;
19554;SDS011;9924;50.828;6.440;2023-04-09T06:17:09;71.90;;;34.70;;
19554;SDS011;9924;50.828;6.440;2023-04-09T06:19:53;70.72;;;34.35;;
19554;SDS011;9924;50.828;6.440;2023-04-09T06:22:38;69.63;;;32.70;;
19554;SDS011;9924;50.828;6.440;2023-04-09T06:25:23;64.38;;;33.38;;
19554;SDS011;9924;50.828;6.440;2023-04-09T06:28:07;66.10;;;33.88;;
19554;SDS011;9924;50.828;6.440;2023-04-09T06:30:52;60.58;;;31.65;;
19554;SDS011;9924;50.828;6.440;2023-04-09T06:33:37;60.55;;;30.77;;
19554;SDS011;9924;50.828;6.440;2023-04-09T06:36:22;58.05;;;31.98;;
19554;SDS011;9924;50.828;6.440;2023-04-09T06:39:06;55.20;;;29.35;;
19554;SDS011;9924;50.828;6.440;2023-04-09T06:41:50;53.92;;;29.17;;
19554;SDS011;9924;50.828;6.440;2023-04-09T06:44:35;49.78;;;28.45;;
19554;SDS011;9924;50.828;6.440;2023-04-09T06:47:19;43.90;;;27.05;;
19554;SDS011;9924;50.828;6.440;2023-04-09T06:50:03;48.40;;;28.30;;
19554;SDS011;9924;50.828;6.440;2023-04-09T06:52:49;47.53;;;27.38;;
19554;SDS011;9924;50.828;6.440;2023-04-09T06:55:34;51.03;;;29.33;;
19554;SDS011;9924;50.828;6.440;2023-04-09T06:58:18;51.13;;;30.17;;
19554;SDS011;9924;50.828;6.440;2023-04-09T07:01:04;49.92;;;29.58;;
19554;SDS011;9924;50.828;6.440;2023-04-09T07:03:49;54.03;;;29.73;;
19554;SDS011;9924;50.828;6.440;2023-04-09T07:06:33;51.22;;;30.05;;
19554;SDS011;9924;50.828;6.440;2023-04-09T07:09:18;51.42;;;29.60;;
19554;SDS011;9924;50.828;6.440;2023-04-09T07:12:02;51.50;;;29.35;;
19554;SDS011;9924;50.828;6.440;2023-04-09T07:14:47;50.95;;;27.90;;
19554;SDS011;9924;50.828;6.440;2023-04-09T07:17:31;47.25;;;26.77;;
19554;SDS011;9924;50.828;6.440;2023-04-09T07:20:15;41.95;;;24.02;;
19554;SDS011;9924;50.828;6.440;2023-04-09T07:23:00;42.63;;;24.05;;
19554;SDS011;9924;50.828;6.440;2023-04-09T07:25:44;40.65;;;23.80;;
19554;SDS011;9924;50.828;6.440;2023-04-09T07:28:29;41.90;;;24.25;;
19554;SDS011;9924;50.828;6.440;2023-04-09T07:31:14;35.97;;;22.58;;
19554;SDS011;9924;50.828;6.440;2023-04-09T07:33:59;33.40;;;21.08;;
19554;SDS011;9924;50.828;6.440;2023-04-09T07:36:43;29.67;;;17.88;;
19554;SDS011;9924;50.828;6.440;2023-04-09T07:39:28;27.27;;;17.30;;
19554;SDS011;9924;50.828;6.440;2023-04-09T07:42:13;31.00;;;17.13;;
19554;SDS011;9924;50.828;6.440;2023-04-09T07:44:57;29.23;;;17.33;;
19554;SDS011;9924;50.828;6.440;2023-04-09T07:47:42;22.17;;;14.02;;
19554;SDS011;9924;50.828;6.440;2023-04-09T07:50:26;21.05;;;13.60;;
19554;SDS011;9924;50.828;6.440;2023-04-09T07:53:11;25.17;;;14.48;;
19554;SDS011;9924;50.828;6.440;2023-04-09T07:55:55;20.60;;;12.68;;
19554;SDS011;9924;50.828;6.440;2023-04-09T07:58:40;19.60;;;12.82;;
19554;SDS011;9924;50.828;6.440;2023-04-09T08:01:24;21.17;;;12.50;;
19554;SDS011;9924;50.828;6.440;2023-04-09T08:04:09;22.70;;;13.50;;
19554;SDS011;9924;50.828;6.440;2023-04-09T08:06:53;18.00;;;12.10;;
19554;SDS011;9924;50.828;6.440;2023-04-09T08:09:38;19.38;;;12.18;;
19554;SDS011;9924;50.828;6.440;2023-04-09T08:12:22;17.48;;;10.77;;
19554;SDS011;9924;50.828;6.440;2023-04-09T08:15:07;16.52;;;11.10;;
19554;SDS011;9924;50.828;6.440;2023-04-09T08:17:51;16.73;;;10.70;;
19554;SDS011;9924;50.828;6.440;2023-04-09T08:20:36;17.63;;;11.23;;
19554;SDS011;9924;50.828;6.440;2023-04-09T08:23:27;17.27;;;10.88;;
19554;SDS011;9924;50.828;6.440;2023-04-09T08:26:12;18.52;;;10.88;;
19554;SDS011;9924;50.828;6.440;2023-04-09T08:28:57;16.27;;;10.80;;
19554;SDS011;9924;50.828;6.440;2023-04-09T08:31:41;15.18;;;10.48;;
19554;SDS011;9924;50.828;6.440;2023-04-09T08:34:25;15.57;;;9.93;;
19554;SDS011;9924;50.828;6.440;2023-04-09T08:37:10;13.23;;;9.35;;
19554;SDS011;9924;50.828;6.440;2023-04-09T08:39:54;14.27;;;9.50;;
19554;SDS011;9924;50.828;6.440;2023-04-09T08:42:42;13.45;;;8.38;;
19554;SDS011;9924;50.828;6.440;2023-04-09T08:45:30;7.47;;;5.15;;
19554;SDS011;9924;50.828;6.440;2023-04-09T08:48:15;13.48;;;8.32;;
19554;SDS011;9924;50.828;6.440;2023-04-09T08:51:00;11.27;;;7.78;;
19554;SDS011;9924;50.828;6.440;2023-04-09T08:53:46;14.77;;;7.80;;
19554;SDS011;9924;50.828;6.440;2023-04-09T08:56:50;10.68;;;6.78;;
19554;SDS011;9924;50.828;6.440;2023-04-09T08:59:35;8.73;;;6.00;;
19554;SDS011;9924;50.828;6.440;2023-04-09T09:02:20;10.25;;;7.00;;
19554;SDS011;9924;50.828;6.440;2023-04-09T09:05:07;10.23;;;7.18;;
19554;SDS011;9924;50.828;6.440;2023-04-09T09:07:52;11.13;;;7.35;;
19554;SDS011;9924;50.828;6.440;2023-04-09T09:10:41;10.00;;;6.95;;
19554;SDS011;9924;50.828;6.440;2023-04-09T09:13:28;8.90;;;6.32;;
19554;SDS011;9924;50.828;6.440;2023-04-09T09:16:13;11.20;;;6.82;;
19554;SDS011;9924;50.828;6.440;2023-04-09T09:18:58;8.13;;;6.13;;
19554;SDS011;9924;50.828;6.440;2023-04-09T09:21:53;10.77;;;6.63;;
19554;SDS011;9924;50.828;6.440;2023-04-09T09:24:45;8.07;;;5.43;;
19554;SDS011;9924;50.828;6.440;2023-04-09T09:27:34;5.55;;;3.70;;
19554;SDS011;9924;50.828;6.440;2023-04-09T09:30:23;6.05;;;3.85;;
19554;SDS011;9924;50.828;6.440;2023-04-09T09:33:09;5.85;;;3.92;;
19554;SDS011;9924;50.828;6.440;2023-04-09T09:35:54;7.10;;;4.57;;
19554;SDS011;9924;50.828;6.440;2023-04-09T09:38:53;6.65;;;4.20;;
19554;SDS011;9924;50.828;6.440;2023-04-09T09:41:39;5.82;;;3.72;;
19554;SDS011;9924;50.828;6.440;2023-04-09T09:44:31;5.90;;;4.00;;
19554;SDS011;9924;50.828;6.440;2023-04-09T09:47:19;6.20;;;4.10;;
19554;SDS011;9924;50.828;6.440;2023-04-09T09:50:04;6.78;;;4.57;;
19554;SDS011;9924;50.828;6.440;2023-04-09T09:52:48;5.75;;;4.28;;
19554;SDS011;9924;50.828;6.440;2023-04-09T09:55:37;5.80;;;4.00;;
19554;SDS011;9924;50.828;6.440;2023-04-09T09:58:26;5.82;;;4.18;;
19554;SDS011;9924;50.828;6.440;2023-04-09T10:01:15;7.10;;;4.90;;
19554;SDS011;9924;50.828;6.440;2023-04-09T10:04:03;8.45;;;5.35;;
19554;SDS011;9924;50.828;6.440;2023-04-09T10:06:49;9.00;;;6.03;;
19554;SDS011;9924;50.828;6.440;2023-04-09T10:09:34;11.68;;;7.72;;
19554;SDS011;9924;50.828;6.440;2023-04-09T10:12:21;10.20;;;6.68;;
19554;SDS011;9924;50.828;6.440;2023-04-09T10:15:09;9.27;;;6.70;;
19554;SDS011;9924;50.828;6.440;2023-04-09T10:17:53;9.40;;;7.00;;
19554;SDS011;9924;50.828;6.440;2023-04-09T10:20:40;9.80;;;6.15;;
19554;SDS011;9924;50.828;6.440;2023-04-09T10:23:39;8.75;;;5.95;;
19554;SDS011;9924;50.828;6.440;2023-04-09T10:26:27;10.52;;;6.30;;
19554;SDS011;9924;50.828;6.440;2023-04-09T10:29:14;8.20;;;5.82;;
19554;SDS011;9924;50.828;6.440;2023-04-09T10:32:03;9.75;;;6.72;;
19554;SDS011;9924;50.828;6.440;2023-04-09T10:34:50;8.35;;;6.28;;
19554;SDS011;9924;50.828;6.440;2023-04-09T10:37:38;8.82;;;6.03;;
19554;SDS011;9924;50.828;6.440;2023-04-09T10:40:32;7.60;;;5.07;;
19554;SDS011;9924;50.828;6.440;2023-04-09T10:43:17;7.38;;;5.18;;
19554;SDS011;9924;50.828;6.440;2023-04-09T10:46:04;9.02;;;5.47;;
19554;SDS011;9924;50.828;6.440;2023-04-09T10:49:09;7.22;;;5.25;;
19554;SDS011;9924;50.828;6.440;2023-04-09T10:52:03;6.90;;;5.22;;
19554;SDS011;9924;50.828;6.440;2023-04-09T10:54:49;8.15;;;5.47;;
19554;SDS011;9924;50.828;6.440;2023-04-09T10:57:34;7.07;;;5.20;;
19554;SDS011;9924;50.828;6.440;2023-04-09T11:00:18;7.28;;;5.28;;
19554;SDS011;9924;50.828;6.440;2023-04-09T11:06:05;9.20;;;6.10;;
19554;SDS011;9924;50.828;6.440;2023-04-09T11:08:55;6.25;;;4.47;;
19554;SDS011;9924;50.828;6.440;2023-04-09T11:11:50;5.60;;;4.15;;
19554;SDS011;9924;50.828;6.440;2023-04-09T11:14:36;7.22;;;5.10;;
19554;SDS011;9924;50.828;6.440;2023-04-09T11:17:20;6.82;;;4.65;;
19554;SDS011;9924;50.828;6.440;2023-04-09T11:20:05;8.25;;;4.60;;
19554;SDS011;9924;50.828;6.440;2023-04-09T11:22:51;6.80;;;4.70;;
19554;SDS011;9924;50.828;6.440;2023-04-09T11:25:36;5.68;;;4.40;;
19554;SDS011;9924;50.828;6.440;2023-04-09T11:28:21;6.25;;;4.50;;
19554;SDS011;9924;50.828;6.440;2023-04-09T11:31:06;8.60;;;4.53;;
19554;SDS011;9924;50.828;6.440;2023-04-09T11:33:50;6.45;;;4.13;;
19554;SDS011;9924;50.828;6.440;2023-04-09T11:36:34;6.72;;;4.65;;
19554;SDS011;9924;50.828;6.440;2023-04-09T11:39:19;7.53;;;4.47;;
19554;SDS011;9924;50.828;6.440;2023-04-09T11:42:04;7.00;;;4.15;;
19554;SDS011;9924;50.828;6.440;2023-04-09T11:44:48;5.53;;;4.10;;
19554;SDS011;9924;50.828;6.440;2023-04-09T11:47:33;5.50;;;4.00;;
19554;SDS011;9924;50.828;6.440;2023-04-09T11:50:18;5.13;;;4.03;;
19554;SDS011;9924;50.828;6.440;2023-04-09T11:53:16;6.45;;;4.20;;
19554;SDS011;9924;50.828;6.440;2023-04-09T11:56:00;6.70;;;4.78;;
19554;SDS011;9924;50.828;6.440;2023-04-09T11:58:45;6.78;;;4.47;;
19554;SDS011;9924;50.828;6.440;2023-04-09T12:01:31;6.20;;;4.40;;
19554;SDS011;9924;50.828;6.440;2023-04-09T12:04:19;5.22;;;3.80;;
19554;SDS011;9924;50.828;6.440;2023-04-09T12:07:06;4.40;;;3.55;;
19554;SDS011;9924;50.828;6.440;2023-04-09T12:09:52;7.38;;;4.57;;
19554;SDS011;9924;50.828;6.440;2023-04-09T12:12:38;7.28;;;4.97;;
19554;SDS011;9924;50.828;6.440;2023-04-09T12:15:29;7.70;;;5.22;;
19554;SDS011;9924;50.828;6.440;2023-04-09T12:18:20;7.78;;;5.07;;
19554;SDS011;9924;50.828;6.440;2023-04-09T12:21:06;8.77;;;5.45;;
19554;SDS011;9924;50.828;6.440;2023-04-09T12:23:50;9.60;;;5.43;;
19554;SDS011;9924;50.828;6.440;2023-04-09T12:26:34;7.10;;;5.40;;
19554;SDS011;9924;50.828;6.440;2023-04-09T12:29:19;7.13;;;5.20;;
19554;SDS011;9924;50.828;6.440;2023-04-09T12:32:04;8.00;;;5.60;;
19554;SDS011;9924;50.828;6.440;2023-04-09T12:34:49;7.97;;;5.32;;
19554;SDS011;9924;50.828;6.440;2023-04-09T12:37:34;7.15;;;5.13;;
19554;SDS011;9924;50.828;6.440;2023-04-09T12:40:18;6.72;;;5.05;;
19554;SDS011;9924;50.828;6.440;2023-04-09T12:43:03;7.20;;;5.68;;
19554;SDS011;9924;50.828;6.440;2023-04-09T12:45:48;6.57;;;5.03;;
19554;SDS011;9924;50.828;6.440;2023-04-09T12:48:33;8.18;;;5.55;;
19554;SDS011;9924;50.828;6.440;2023-04-09T12:51:17;7.35;;;4.88;;
19554;SDS011;9924;50.828;6.440;2023-04-09T12:54:02;6.40;;;5.00;;
19554;SDS011;9924;50.828;6.440;2023-04-09T12:56:46;6.38;;;4.95;;
19554;SDS011;9924;50.828;6.440;2023-04-09T12:59:32;6.55;;;4.88;;
19554;SDS011;9924;50.828;6.440;2023-04-09T13:02:17;6.30;;;4.53;;
19554;SDS011;9924;50.828;6.440;2023-04-09T13:05:02;8.80;;;4.38;;
19554;SDS011;9924;50.828;6.440;2023-04-09T13:07:50;7.75;;;5.53;;
19554;SDS011;9924;50.828;6.440;2023-04-09T13:10:35;7.13;;;5.50;;
19554;SDS011;9924;50.828;6.440;2023-04-09T13:13:19;5.88;;;4.80;;
19554;SDS011;9924;50.828;6.440;2023-04-09T13:16:04;6.70;;;5.07;;
19554;SDS011;9924;50.828;6.440;2023-04-09T13:18:49;7.20;;;4.85;;
19554;SDS011;9924;50.828;6.440;2023-04-09T13:21:34;6.30;;;4.40;;
19554;SDS011;9924;50.828;6.440;2023-04-09T13:24:19;5.30;;;4.57;;
19554;SDS011;9924;50.828;6.440;2023-04-09T13:27:04;7.72;;;5.22;;
19554;SDS011;9924;50.828;6.440;2023-04-09T13:29:51;6.20;;;4.78;;
19554;SDS011;9924;50.828;6.440;2023-04-09T13:32:36;6.00;;;4.78;;
19554;SDS011;9924;50.828;6.440;2023-04-09T13:35:21;7.03;;;4.70;;
19554;SDS011;9924;50.828;6.440;2023-04-09T13:38:05;6.13;;;4.53;;
19554;SDS011;9924;50.828;6.440;2023-04-09T13:40:50;5.72;;;4.47;;
19554;SDS011;9924;50.828;6.440;2023-04-09T13:43:35;6.47;;;4.32;;
19554;SDS011;9924;50.828;6.440;2023-04-09T13:46:19;6.95;;;4.53;;
19554;SDS011;9924;50.828;6.440;2023-04-09T13:49:04;5.78;;;4.35;;
19554;SDS011;9924;50.828;6.440;2023-04-09T13:51:48;5.15;;;4.25;;
19554;SDS011;9924;50.828;6.440;2023-04-09T13:54:34;5.82;;;4.45;;
19554;SDS011;9924;50.828;6.440;2023-04-09T13:57:21;5.40;;;4.10;;
19554;SDS011;9924;50.828;6.440;2023-04-09T14:00:06;6.15;;;4.40;;
19554;SDS011;9924;50.828;6.440;2023-04-09T14:02:51;5.60;;;4.03;;
19554;SDS011;9924;50.828;6.440;2023-04-09T14:05:35;6.30;;;4.22;;
19554;SDS011;9924;50.828;6.440;2023-04-09T14:08:20;6.15;;;4.07;;
19554;SDS011;9924;50.828;6.440;2023-04-09T14:11:04;5.82;;;4.60;;
19554;SDS011;9924;50.828;6.440;2023-04-09T14:13:49;5.07;;;3.65;;
19554;SDS011;9924;50.828;6.440;2023-04-09T14:16:33;5.90;;;4.35;;
19554;SDS011;9924;50.828;6.440;2023-04-09T14:19:18;5.05;;;3.88;;
19554;SDS011;9924;50.828;6.440;2023-04-09T14:22:02;4.72;;;3.97;;
19554;SDS011;9924;50.828;6.440;2023-04-09T14:24:48;5.78;;;4.40;;
19554;SDS011;9924;50.828;6.440;2023-04-09T14:27:33;5.93;;;4.20;;
19554;SDS011;9924;50.828;6.440;2023-04-09T14:30:17;5.63;;;3.97;;
19554;SDS011;9924;50.828;6.440;2023-04-09T14:33:02;4.95;;;3.80;;
19554;SDS011;9924;50.828;6.440;2023-04-09T14:35:46;4.35;;;3.80;;
19554;SDS011;9924;50.828;6.440;2023-04-09T14:38:31;5.53;;;4.05;;
19554;SDS011;9924;50.828;6.440;2023-04-09T14:41:16;6.13;;;4.20;;
19554;SDS011;9924;50.828;6.440;2023-04-09T14:44:01;6.22;;;4.00;;
19554;SDS011;9924;50.828;6.440;2023-04-09T14:46:45;4.30;;;3.22;;
19554;SDS011;9924;50.828;6.440;2023-04-09T14:49:29;4.75;;;3.45;;
19554;SDS011;9924;50.828;6.440;2023-04-09T14:52:14;3.95;;;3.20;;
19554;SDS011;9924;50.828;6.440;2023-04-09T14:54:59;3.80;;;3.35;;
19554;SDS011;9924;50.828;6.440;2023-04-09T14:57:43;5.18;;;3.65;;
19554;SDS011;9924;50.828;6.440;2023-04-09T15:00:28;4.50;;;2.80;;
19554;SDS011;9924;50.828;6.440;2023-04-09T15:03:13;4.13;;;3.40;;
19554;SDS011;9924;50.828;6.440;2023-04-09T15:05:57;5.25;;;3.50;;
19554;SDS011;9924;50.828;6.440;2023-04-09T15:08:43;4.00;;;3.05;;
19554;SDS011;9924;50.828;6.440;2023-04-09T15:11:27;4.07;;;3.15;;
19554;SDS011;9924;50.828;6.440;2023-04-09T15:14:12;3.70;;;3.08;;
19554;SDS011;9924;50.828;6.440;2023-04-09T15:16:56;3.35;;;2.97;;
19554;SDS011;9924;50.828;6.440;2023-04-09T15:19:40;4.32;;;3.42;;
19554;SDS011;9924;50.828;6.440;2023-04-09T15:22:25;4.75;;;3.78;;
19554;SDS011;9924;50.828;6.440;2023-04-09T15:25:09;4.03;;;3.58;;
19554;SDS011;9924;50.828;6.440;2023-04-09T15:27:53;5.10;;;3.95;;
19554;SDS011;9924;50.828;6.440;2023-04-09T15:30:38;4.72;;;3.88;;
19554;SDS011;9924;50.828;6.440;2023-04-09T15:33:24;5.38;;;3.95;;
19554;SDS011;9924;50.828;6.440;2023-04-09T15:36:09;5.18;;;4.05;;
19554;SDS011;9924;50.828;6.440;2023-04-09T15:38:54;7.25;;;4.57;;
19554;SDS011;9924;50.828;6.440;2023-04-09T15:41:39;5.50;;;3.97;;
19554;SDS011;9924;50.828;6.440;2023-04-09T15:44:23;7.43;;;4.55;;
19554;SDS011;9924;50.828;6.440;2023-04-09T15:47:08;5.22;;;3.75;;
19554;SDS011;9924;50.828;6.440;2023-04-09T15:49:53;5.97;;;3.78;;
19554;SDS011;9924;50.828;6.440;2023-04-09T15:52:38;4.93;;;3.92;;
19554;SDS011;9924;50.828;6.440;2023-04-09T15:55:23;5.53;;;4.20;;
19554;SDS011;9924;50.828;6.440;2023-04-09T15:58:09;5.57;;;4.05;;
19554;SDS011;9924;50.828;6.440;2023-04-09T16:00:53;5.28;;;3.88;;
19554;SDS011;9924;50.828;6.440;2023-04-09T16:03:37;5.95;;;4.20;;
19554;SDS011;9924;50.828;6.440;2023-04-09T16:06:23;5.43;;;4.10;;
19554;SDS011;9924;50.828;6.440;2023-04-09T16:09:08;5.72;;;3.80;;
19554;SDS011;9924;50.828;6.440;2023-04-09T16:11:52;5.32;;;4.22;;
19554;SDS011;9924;50.828;6.440;2023-04-09T16:14:37;6.90;;;4.72;;
19554;SDS011;9924;50.828;6.440;2023-04-09T16:17:22;5.35;;;3.92;;
19554;SDS011;9924;50.828;6.440;2023-04-09T16:20:07;7.85;;;4.05;;
19554;SDS011;9924;50.828;6.440;2023-04-09T16:22:52;5.55;;;4.18;;
19554;SDS011;9924;50.828;6.440;2023-04-09T16:25:36;5.72;;;4.15;;
19554;SDS011;9924;50.828;6.440;2023-04-09T16:28:20;5.55;;;3.70;;
19554;SDS011;9924;50.828;6.440;2023-04-09T16:31:05;6.28;;;4.40;;
19554;SDS011;9924;50.828;6.440;2023-04-09T16:33:51;5.28;;;4.10;;
19554;SDS011;9924;50.828;6.440;2023-04-09T16:36:35;5.93;;;4.07;;
19554;SDS011;9924;50.828;6.440;2023-04-09T16:39:20;6.13;;;4.00;;
19554;SDS011;9924;50.828;6.440;2023-04-09T16:42:04;5.68;;;4.45;;
19554;SDS011;9924;50.828;6.440;2023-04-09T16:44:49;5.40;;;4.10;;
19554;SDS011;9924;50.828;6.440;2023-04-09T16:47:34;5.07;;;3.88;;
19554;SDS011;9924;50.828;6.440;2023-04-09T16:50:18;7.63;;;4.43;;
19554;SDS011;9924;50.828;6.440;2023-04-09T16:53:03;5.57;;;3.80;;